Time;durP1;ratioP1;P1;durP2;ratioP2;P2;SDS_P1;SDS_P2;PMS_P1;PMS_P2;Temp;Humidity;BMP_temperature;BMP_pressure;BME280_temperature;BME280_humidity;BME280_pressure;Samples;Min_cycle;Max_cycle;Signal;HPM_P1;HPM_P2
2023/05/01 00:00:17;;;;;;;2.47;2.10;;;19.40;48.50;;;;;;5064045;28;46554;-65
2023/05/01 00:02:44;;;;;;;2.20;2.00;;;19.40;48.50;;;;;;5065098;28;45391;-66
2023/05/01 00:05:10;;;;;;;2.30;2.10;;;19.40;48.60;;;;;;5064614;28;45388;-65
2023/05/01 00:07:37;;;;;;;2.45;2.25;;;19.40;48.60;;;;;;5073761;28;45600;-65
2023/05/01 00:10:05;;;;;;;2.05;1.88;;;19.40;48.70;;;;;;5064330;28;45378;-66
2023/05/01 00:12:33;;;;;;;1.92;1.83;;;19.40;48.60;;;;;;5064647;28;45357;-67
2023/05/01 00:15:00;;;;;;;2.05;1.95;;;19.40;48.60;;;;;;5064138;28;45337;-65
2023/05/01 00:17:27;;;;;;;2.30;2.10;;;19.30;48.60;;;;;;5064279;28;45500;-64
2023/05/01 00:19:53;;;;;;;2.10;1.85;;;19.30;48.70;;;;;;5064389;28;46409;-65
2023/05/01 00:22:20;;;;;;;1.98;1.88;;;19.30;48.70;;;;;;5068661;28;45488;-64
2023/05/01 00:24:47;;;;;;;2.60;2.40;;;19.30;48.70;;;;;;5074187;28;45466;-65
2023/05/01 00:27:14;;;;;;;2.75;2.20;;;19.30;48.70;;;;;;5063915;28;45344;-66
2023/05/01 00:29:42;;;;;;;2.33;1.90;;;19.30;48.80;;;;;;5064008;28;45262;-64
2023/05/01 00:32:09;;;;;;;2.20;2.00;;;19.30;48.80;;;;;;5064678;28;45476;-65
2023/05/01 00:34:36;;;;;;;2.20;2.00;;;19.30;48.90;;;;;;5068811;28;45397;-65
2023/05/01 00:37:03;;;;;;;1.92;1.75;;;19.30;49.50;;;;;;5073404;28;45364;-66
2023/05/01 00:39:29;;;;;;;2.03;1.90;;;19.30;48.80;;;;;;5076608;28;45322;-65
2023/05/01 00:41:56;;;;;;;1.90;1.80;;;19.30;48.90;;;;;;5067758;28;45419;-65
2023/05/01 00:44:23;;;;;;;2.25;1.90;;;19.30;48.90;;;;;;5077184;28;45456;-65
2023/05/01 00:46:51;;;;;;;2.17;2.00;;;19.30;48.90;;;;;;5075430;28;45625;-65
2023/05/01 00:49:18;;;;;;;2.38;2.00;;;19.20;48.90;;;;;;5064489;28;45615;-64
2023/05/01 00:51:46;;;;;;;2.03;1.90;;;19.20;48.90;;;;;;5067460;28;45472;-66
2023/05/01 00:54:12;;;;;;;2.25;2.05;;;19.20;48.90;;;;;;5069054;28;45476;-63
2023/05/01 00:56:39;;;;;;;2.20;2.00;;;19.20;48.90;;;;;;5063764;28;45459;-66
2023/05/01 00:59:06;;;;;;;3.50;2.20;;;19.20;49.00;;;;;;5063720;28;46407;-64
2023/05/01 01:01:33;;;;;;;1.90;1.80;;;19.20;49.10;;;;;;5063822;28;45424;-64
2023/05/01 01:04:01;;;;;;;2.10;2.00;;;19.20;49.20;;;;;;5070066;28;45436;-63
2023/05/01 01:06:33;;;;;;;1.98;1.88;;;19.20;49.00;;;;;;5067620;28;45493;-64
2023/05/01 01:09:06;;;;;;;1.98;1.88;;;19.20;49.10;;;;;;5065894;28;45386;-63
2023/05/01 01:11:36;;;;;;;2.15;2.05;;;19.10;49.10;;;;;;5070632;28;45331;-65
2023/05/01 01:14:06;;;;;;;2.30;2.10;;;19.10;49.00;;;;;;5071837;28;45383;-63
2023/05/01 01:16:38;;;;;;;1.92;1.83;;;19.10;49.10;;;;;;5070764;28;45317;-64
2023/05/01 01:19:18;;;;;;;2.20;2.00;;;19.10;49.10;;;;;;5071588;28;45459;-66
2023/05/01 01:21:46;;;;;;;1.90;1.80;;;19.10;49.80;;;;;;5081449;28;45574;-64
2023/05/01 01:24:28;;;;;;;2.22;1.90;;;19.10;49.10;;;;;;5089337;28;45396;-65
2023/05/01 01:27:20;;;;;;;2.30;2.10;;;19.10;49.10;;;;;;5051132;28;45419;-65
2023/05/01 01:30:03;;;;;;;2.47;2.15;;;19.00;49.20;;;;;;5064210;28;45475;-66
2023/05/01 01:32:56;;;;;;;2.78;2.30;;;19.00;49.20;;;;;;5062799;28;45467;-65
2023/05/01 01:35:25;;;;;;;2.40;2.20;;;19.00;49.30;;;;;;5090993;28;45364;-63
2023/05/01 01:37:57;;;;;;;2.55;2.33;;;19.00;49.40;;;;;;5091950;28;45627;-64
2023/05/01 01:40:28;;;;;;;4.68;2.30;;;19.00;49.50;;;;;;5091522;28;45401;-64
2023/05/01 01:42:57;;;;;;;2.80;2.50;;;18.90;49.50;;;;;;5091432;28;45328;-64
2023/05/01 01:45:28;;;;;;;2.95;2.75;;;18.90;49.50;;;;;;5091725;28;45333;-65
2023/05/01 01:47:55;;;;;;;2.40;2.20;;;18.90;49.60;;;;;;5091911;28;45236;-65
2023/05/01 01:50:24;;;;;;;3.00;2.60;;;18.90;49.60;;;;;;5091363;28;45219;-66
2023/05/01 01:52:51;;;;;;;2.72;2.50;;;18.90;49.70;;;;;;5091394;28;45254;-66
2023/05/01 01:55:20;;;;;;;2.78;2.58;;;18.90;49.70;;;;;;5091634;28;45251;-63
2023/05/01 01:57:47;;;;;;;2.55;2.35;;;18.90;49.80;;;;;;5091639;28;45207;-64
2023/05/01 02:00:15;;;;;;;2.88;2.58;;;18.80;49.80;;;;;;5091137;28;46420;-64
2023/05/01 02:02:42;;;;;;;2.95;2.72;;;18.90;49.80;;;;;;5091172;28;45663;-65
2023/05/01 02:05:10;;;;;;;3.60;2.40;;;18.90;49.80;;;;;;5091585;28;45296;-65
2023/05/01 02:07:41;;;;;;;2.85;2.65;;;18.80;49.80;;;;;;5091619;28;45396;-65
2023/05/01 02:10:09;;;;;;;2.72;2.40;;;18.90;50.40;;;;;;5091223;28;46568;-64
2023/05/01 02:12:36;;;;;;;3.20;2.90;;;18.90;50.40;;;;;;5091095;28;45272;-64
2023/05/01 02:15:04;;;;;;;2.75;2.53;;;18.90;50.10;;;;;;5091275;28;45371;-64
2023/05/01 02:17:31;;;;;;;2.92;2.55;;;18.90;49.80;;;;;;5091136;28;45517;-64
2023/05/01 02:19:57;;;;;;;2.85;2.60;;;18.90;49.90;;;;;;5088933;27;45450;-64
2023/05/01 02:22:25;;;;;;;3.25;2.40;;;18.80;49.80;;;;;;5087533;28;45265;-64
2023/05/01 02:24:53;;;;;;;2.88;2.63;;;18.80;49.90;;;;;;5087848;28;45329;-63
2023/05/01 02:27:21;;;;;;;2.67;2.47;;;18.90;50.00;;;;;;5087802;28;45415;-66
2023/05/01 02:29:48;;;;;;;2.70;2.50;;;18.80;49.90;;;;;;5087500;28;46664;-64
2023/05/01 02:32:15;;;;;;;2.72;2.53;;;18.80;49.80;;;;;;5087371;28;45336;-64
2023/05/01 02:34:41;;;;;;;2.50;2.30;;;18.80;49.80;;;;;;5087819;28;45316;-64
2023/05/01 02:37:10;;;;;;;3.97;2.60;;;18.80;49.90;;;;;;5087861;28;45571;-64
2023/05/01 02:39:37;;;;;;;2.47;2.28;;;18.80;50.00;;;;;;5087392;28;46499;-64
2023/05/01 02:42:05;;;;;;;3.05;2.75;;;18.80;49.90;;;;;;5087220;28;45269;-64
2023/05/01 02:44:43;;;;;;;2.50;2.30;;;18.70;50.00;;;;;;5087671;28;45308;-64
2023/05/01 02:47:10;;;;;;;2.60;2.40;;;18.80;50.00;;;;;;5087551;28;45416;-64
2023/05/01 02:49:37;;;;;;;2.53;2.33;;;18.70;50.00;;;;;;5087079;28;46411;-64
2023/05/01 02:52:04;;;;;;;2.60;2.40;;;18.70;50.00;;;;;;5087407;28;45407;-65
2023/05/01 02:54:31;;;;;;;2.58;2.38;;;18.70;50.00;;;;;;5087532;28;45347;-64
2023/05/01 02:56:58;;;;;;;2.45;2.28;;;18.70;50.20;;;;;;5087376;28;45405;-64
2023/05/01 02:59:26;;;;;;;3.05;2.38;;;18.70;50.10;;;;;;5087250;28;45367;-64
2023/05/01 03:01:53;;;;;;;2.72;2.53;;;18.60;50.10;;;;;;5086933;28;45367;-64
2023/05/01 03:04:20;;;;;;;2.47;2.28;;;18.70;50.20;;;;;;5087274;28;45265;-64
2023/05/01 03:06:47;;;;;;;2.45;2.22;;;18.70;50.20;;;;;;5087362;28;45111;-64
2023/05/01 03:09:14;;;;;;;2.80;2.22;;;18.70;50.20;;;;;;5086905;28;46665;-63
2023/05/01 03:11:40;;;;;;;2.83;2.58;;;18.70;50.30;;;;;;5086866;28;45433;-65
2023/05/01 03:14:07;;;;;;;2.58;2.38;;;18.60;50.10;;;;;;5087037;28;45503;-63
2023/05/01 03:16:35;;;;;;;2.97;2.20;;;18.60;50.10;;;;;;5087179;28;45288;-64
2023/05/01 03:19:02;;;;;;;2.80;2.60;;;18.60;50.20;;;;;;5086814;28;45424;-64
2023/05/01 03:21:30;;;;;;;2.47;2.28;;;18.60;50.20;;;;;;5084089;28;45294;-65
2023/05/01 03:23:57;;;;;;;2.58;2.38;;;18.60;50.30;;;;;;5086899;28;45401;-65
2023/05/01 03:26:24;;;;;;;2.30;2.10;;;18.60;50.20;;;;;;5086905;28;45254;-65
2023/05/01 03:28:51;;;;;;;2.47;2.28;;;18.60;50.40;;;;;;5086813;28;46345;-65
2023/05/01 03:31:18;;;;;;;2.58;2.38;;;18.60;50.30;;;;;;5086164;27;45257;-64
2023/05/01 03:33:46;;;;;;;2.50;2.30;;;18.60;50.30;;;;;;5086798;28;45399;-65
2023/05/01 03:36:13;;;;;;;2.47;2.28;;;18.60;50.30;;;;;;5087102;28;45390;-63
2023/05/01 03:38:41;;;;;;;2.40;2.13;;;18.60;50.30;;;;;;5086565;28;46481;-64
2023/05/01 03:41:07;;;;;;;2.40;2.28;;;18.60;50.40;;;;;;5086451;28;45314;-64
2023/05/01 03:43:34;;;;;;;2.45;2.28;;;18.50;50.30;;;;;;5086799;28;45357;-64
2023/05/01 03:46:01;;;;;;;2.55;2.30;;;18.50;50.30;;;;;;5086770;28;44794;-65
2023/05/01 03:48:28;;;;;;;2.50;2.30;;;18.50;50.40;;;;;;5086422;28;45421;-65
2023/05/01 03:50:57;;;;;;;3.15;2.50;;;18.50;50.40;;;;;;5086329;28;45317;-64
2023/05/01 03:53:24;;;;;;;3.25;2.53;;;18.50;50.40;;;;;;5086712;28;45377;-64
2023/05/01 03:55:50;;;;;;;2.60;2.40;;;18.50;50.40;;;;;;5086642;28;45541;-64
2023/05/01 03:58:17;;;;;;;2.30;2.13;;;18.50;50.40;;;;;;5083427;28;46557;-64
2023/05/01 04:00:44;;;;;;;2.35;2.15;;;18.50;50.40;;;;;;5086374;28;45458;-64
2023/05/01 04:03:11;;;;;;;3.50;2.78;;;18.50;50.50;;;;;;5086551;28;45334;-64
2023/05/01 04:05:38;;;;;;;2.50;2.30;;;18.50;50.50;;;;;;5086511;28;45519;-65
2023/05/01 04:08:07;;;;;;;2.55;2.35;;;18.50;50.60;;;;;;5085958;28;45316;-64
2023/05/01 04:10:34;;;;;;;2.40;2.17;;;18.50;50.50;;;;;;5086116;28;45378;-65
2023/05/01 04:13:01;;;;;;;2.35;2.15;;;18.50;50.60;;;;;;5086311;28;45301;-65
2023/05/01 04:15:28;;;;;;;2.45;2.30;;;18.50;50.50;;;;;;5086338;28;45531;-64
2023/05/01 04:17:55;;;;;;;1.98;1.80;;;18.50;50.50;;;;;;5085811;28;45506;-64
2023/05/01 04:20:22;;;;;;;2.40;2.20;;;18.50;50.50;;;;;;5085956;28;45300;-64
2023/05/01 04:22:49;;;;;;;2.20;2.00;;;18.50;50.50;;;;;;5085936;28;45309;-64
2023/05/01 04:25:18;;;;;;;2.45;2.28;;;18.40;50.40;;;;;;5086149;28;45408;-64
2023/05/01 04:27:44;;;;;;;1.92;1.83;;;18.40;50.50;;;;;;5085360;28;45337;-64
2023/05/01 04:30:11;;;;;;;2.10;2.00;;;18.40;50.50;;;;;;5085618;28;45542;-64
2023/05/01 04:32:38;;;;;;;2.60;2.40;;;18.40;50.50;;;;;;5085895;28;45300;-64
2023/05/01 04:35:06;;;;;;;2.42;2.22;;;18.40;50.60;;;;;;5086294;28;45269;-65
2023/05/01 04:37:34;;;;;;;2.08;1.98;;;18.40;50.50;;;;;;5085632;28;46428;-65
2023/05/01 04:40:01;;;;;;;2.35;2.15;;;18.40;50.70;;;;;;5085710;28;45357;-64
2023/05/01 04:42:31;;;;;;;2.30;2.10;;;18.40;50.60;;;;;;5085536;28;45429;-64
2023/05/01 04:45:00;;;;;;;2.97;2.40;;;18.40;50.70;;;;;;5085335;28;45320;-64
2023/05/01 04:47:27;;;;;;;2.30;2.10;;;18.40;50.70;;;;;;5085646;28;45347;-64
2023/05/01 04:49:54;;;;;;;2.72;2.53;;;18.30;51.30;;;;;;5085464;28;45374;-64
2023/05/01 04:52:20;;;;;;;2.28;2.08;;;18.30;50.70;;;;;;5085659;28;45277;-64
2023/05/01 04:54:48;;;;;;;2.13;1.92;;;18.30;50.70;;;;;;5085948;28;45460;-65
2023/05/01 04:57:15;;;;;;;2.35;2.20;;;18.30;50.70;;;;;;5085358;28;45778;-64
2023/05/01 04:59:43;;;;;;;2.40;2.20;;;18.30;51.40;;;;;;5085545;28;45337;-64
2023/05/01 05:02:10;;;;;;;2.40;2.20;;;18.30;50.70;;;;;;5085636;28;45416;-64
2023/05/01 05:04:37;;;;;;;2.30;2.10;;;18.30;50.80;;;;;;5085761;28;45315;-64
2023/05/01 05:07:03;;;;;;;3.50;2.10;;;18.40;50.80;;;;;;5085278;28;45522;-64
2023/05/01 05:09:30;;;;;;;2.25;2.15;;;18.30;50.80;;;;;;5085391;28;45564;-64
2023/05/01 05:11:57;;;;;;;2.40;2.20;;;18.40;50.70;;;;;;5085210;28;45481;-64
2023/05/01 05:14:24;;;;;;;2.47;2.17;;;18.30;50.70;;;;;;5085491;28;45526;-65
2023/05/01 05:16:52;;;;;;;2.00;1.88;;;18.30;51.40;;;;;;5085236;28;46834;-65
2023/05/01 05:19:19;;;;;;;2.58;2.20;;;18.30;50.80;;;;;;5085159;28;45242;-64
2023/05/01 05:21:46;;;;;;;1.98;1.88;;;18.30;50.80;;;;;;5085141;28;45383;-65
2023/05/01 05:24:13;;;;;;;2.55;2.35;;;18.40;50.90;;;;;;5085617;28;45352;-64
2023/05/01 05:26:40;;;;;;;2.55;2.10;;;18.30;51.50;;;;;;5084887;28;45321;-64
2023/05/01 05:29:07;;;;;;;2.33;2.10;;;18.30;50.90;;;;;;5085143;28;45388;-65
2023/05/01 05:31:34;;;;;;;2.13;2.00;;;18.30;51.00;;;;;;5085106;28;45262;-64
2023/05/01 05:34:02;;;;;;;3.05;2.45;;;18.30;50.90;;;;;;5085545;28;45425;-64
2023/05/01 05:36:29;;;;;;;1.95;1.85;;;18.30;51.00;;;;;;5084830;28;45333;-65
2023/05/01 05:38:56;;;;;;;2.78;2.20;;;18.30;51.00;;;;;;5084898;28;45328;-65
2023/05/01 05:41:23;;;;;;;2.15;2.00;;;18.30;51.60;;;;;;5085064;28;45292;-64
2023/05/01 05:43:52;;;;;;;2.30;2.10;;;18.30;51.00;;;;;;5085429;28;45569;-65
2023/05/01 05:46:20;;;;;;;1.98;1.88;;;18.30;50.90;;;;;;5084965;28;47643;-65
2023/05/01 05:48:46;;;;;;;2.20;2.00;;;18.30;50.90;;;;;;5067038;28;45201;-64
2023/05/01 05:51:15;;;;;;;1.75;1.65;;;18.30;51.00;;;;;;5084987;28;45285;-65
2023/05/01 05:53:41;;;;;;;2.17;2.08;;;18.30;51.00;;;;;;5085172;28;45325;-65
2023/05/01 05:56:08;;;;;;;2.50;2.30;;;18.30;51.10;;;;;;5087761;27;47295;-65
2023/05/01 05:58:35;;;;;;;2.10;1.90;;;18.30;51.00;;;;;;5088336;28;45359;-65
2023/05/01 06:01:02;;;;;;;2.42;2.22;;;18.30;51.00;;;;;;5088253;28;45411;-65
2023/05/01 06:03:29;;;;;;;2.20;2.00;;;18.30;51.00;;;;;;5085826;28;45301;-65
2023/05/01 06:05:56;;;;;;;2.05;1.88;;;18.30;51.00;;;;;;5088185;28;46391;-64
2023/05/01 06:08:24;;;;;;;2.80;2.10;;;18.30;51.10;;;;;;5088077;28;45391;-65
2023/05/01 06:10:51;;;;;;;1.90;1.80;;;18.30;51.10;;;;;;5088108;28;45313;-64
2023/05/01 06:13:18;;;;;;;2.35;2.17;;;18.30;51.10;;;;;;5088280;28;45256;-64
2023/05/01 06:15:45;;;;;;;2.75;2.17;;;18.30;51.10;;;;;;5087960;28;45328;-64
2023/05/01 06:18:12;;;;;;;3.08;2.38;;;18.30;51.10;;;;;;5087955;28;45334;-65
2023/05/01 06:20:38;;;;;;;2.30;2.00;;;18.20;51.10;;;;;;5087881;28;45339;-64
2023/05/01 06:23:07;;;;;;;2.28;2.08;;;18.30;51.10;;;;;;5088134;28;45435;-65
2023/05/01 06:25:36;;;;;;;2.60;2.17;;;18.30;51.10;;;;;;5087765;28;45346;-64
2023/05/01 06:28:02;;;;;;;1.90;1.80;;;18.30;51.10;;;;;;5086816;28;45495;-64
2023/05/01 06:30:29;;;;;;;2.50;2.30;;;18.30;51.20;;;;;;5087842;28;45383;-65
2023/05/01 06:32:56;;;;;;;2.28;2.08;;;18.30;51.20;;;;;;5088101;28;45329;-64
2023/05/01 06:35:23;;;;;;;1.98;1.85;;;18.30;51.20;;;;;;5087545;28;45329;-64
2023/05/01 06:37:50;;;;;;;2.00;1.90;;;18.30;51.20;;;;;;5087638;28;45361;-64
2023/05/01 06:40:17;;;;;;;2.20;2.00;;;18.30;51.30;;;;;;5087749;28;45384;-64
2023/05/01 06:42:45;;;;;;;2.35;2.13;;;18.30;51.30;;;;;;5087579;28;45648;-64
2023/05/01 06:45:12;;;;;;;1.98;1.88;;;18.30;51.30;;;;;;5087702;28;46742;-64
2023/05/01 06:47:39;;;;;;;2.45;2.25;;;18.30;51.30;;;;;;5087468;28;45274;-64
2023/05/01 06:50:07;;;;;;;2.40;2.20;;;18.30;51.40;;;;;;5087737;28;45202;-64
2023/05/01 06:52:34;;;;;;;1.83;1.73;;;18.20;51.30;;;;;;5087617;28;45412;-64
2023/05/01 06:55:00;;;;;;;2.20;2.00;;;18.20;51.40;;;;;;5087318;28;45571;-65
2023/05/01 06:57:27;;;;;;;2.50;2.30;;;18.30;51.40;;;;;;5087320;28;45261;-65
2023/05/01 06:59:56;;;;;;;2.20;2.00;;;18.30;51.50;;;;;;5087331;28;45331;-65
2023/05/01 07:02:22;;;;;;;2.17;2.03;;;18.30;51.50;;;;;;5087431;28;45481;-65
2023/05/01 07:04:49;;;;;;;2.15;1.95;;;18.30;51.50;;;;;;5087112;28;46397;-64
2023/05/01 07:07:16;;;;;;;1.88;1.77;;;18.30;51.40;;;;;;5086453;27;45380;-65
2023/05/01 07:09:43;;;;;;;2.25;2.13;;;18.30;51.50;;;;;;5087188;28;45316;-65
2023/05/01 07:12:10;;;;;;;1.95;1.83;;;18.30;51.50;;;;;;5087437;28;45409;-65
2023/05/01 07:14:37;;;;;;;1.92;1.75;;;18.30;51.50;;;;;;5086965;28;46656;-65
2023/05/01 07:17:05;;;;;;;2.20;2.00;;;18.20;51.50;;;;;;5087204;28;45383;-64
2023/05/01 07:19:32;;;;;;;2.35;2.15;;;18.20;51.50;;;;;;5087042;28;45293;-64
2023/05/01 07:21:59;;;;;;;2.45;2.20;;;18.20;51.50;;;;;;5087121;28;45312;-64
2023/05/01 07:24:26;;;;;;;1.92;1.83;;;18.20;51.50;;;;;;5086905;28;46516;-64
2023/05/01 07:26:53;;;;;;;2.13;2.00;;;18.20;51.50;;;;;;5086762;28;45387;-64
2023/05/01 07:29:20;;;;;;;2.25;2.00;;;18.20;51.50;;;;;;5087192;28;45286;-65
2023/05/01 07:31:47;;;;;;;2.10;2.00;;;18.20;51.60;;;;;;5086973;28;45461;-64
2023/05/01 07:34:16;;;;;;;2.15;2.00;;;18.20;51.60;;;;;;5086772;28;46663;-64
2023/05/01 07:36:42;;;;;;;2.20;2.10;;;18.20;51.70;;;;;;5087065;28;45381;-64
2023/05/01 07:39:09;;;;;;;1.88;1.77;;;18.20;51.70;;;;;;5086891;28;45379;-65
2023/05/01 07:41:36;;;;;;;2.10;2.00;;;18.20;51.70;;;;;;5086843;28;45562;-64
2023/05/01 07:44:03;;;;;;;2.00;1.90;;;18.20;51.70;;;;;;5086795;28;47357;-64
2023/05/01 07:46:30;;;;;;;2.08;1.98;;;18.20;51.80;;;;;;5086699;28;45404;-64
2023/05/01 07:48:57;;;;;;;2.00;1.88;;;18.20;51.80;;;;;;5086761;28;45367;-65
2023/05/01 07:51:25;;;;;;;2.10;1.98;;;18.20;51.60;;;;;;5086429;28;45451;-64
2023/05/01 07:53:52;;;;;;;2.70;1.75;;;18.20;51.80;;;;;;5086395;28;45506;-64
2023/05/01 07:56:20;;;;;;;2.20;1.90;;;18.20;51.90;;;;;;5086371;28;45268;-65
2023/05/01 07:58:47;;;;;;;2.10;2.00;;;18.20;51.90;;;;;;5086492;28;45409;-64
2023/05/01 08:01:13;;;;;;;3.13;2.10;;;18.20;51.90;;;;;;5086421;28;45428;-65
2023/05/01 08:03:40;;;;;;;2.30;2.10;;;18.20;52.00;;;;;;5086142;28;45305;-65
2023/05/01 08:06:07;;;;;;;2.58;2.17;;;18.20;51.90;;;;;;5086261;28;45269;-64
2023/05/01 08:08:36;;;;;;;2.00;1.90;;;18.20;51.90;;;;;;5086727;28;45451;-66
2023/05/01 08:11:03;;;;;;;2.08;1.75;;;18.20;51.90;;;;;;5086270;28;45430;-65
2023/05/01 08:13:29;;;;;;;2.28;2.08;;;18.20;52.00;;;;;;5086044;28;45329;-64
2023/05/01 08:16:00;;;;;;;2.33;2.10;;;18.20;52.00;;;;;;5086197;28;45378;-65
2023/05/01 08:18:27;;;;;;;2.10;1.88;;;18.20;52.00;;;;;;5084966;27;45266;-65
2023/05/01 08:20:54;;;;;;;2.10;1.95;;;18.20;52.00;;;;;;5086400;28;45442;-65
2023/05/01 08:23:21;;;;;;;1.95;1.85;;;18.20;52.00;;;;;;5086051;28;46620;-64
2023/05/01 08:25:50;;;;;;;1.95;1.70;;;18.20;51.90;;;;;;5085964;28;45240;-65
2023/05/01 08:28:19;;;;;;;5.43;1.83;;;18.20;52.00;;;;;;5085919;28;45306;-65
2023/05/01 08:30:47;;;;;;;2.03;1.83;;;18.20;52.00;;;;;;5086062;28;45345;-65
2023/05/01 08:33:15;;;;;;;2.17;2.00;;;18.20;52.10;;;;;;5085959;28;45395;-65
2023/05/01 08:35:41;;;;;;;2.25;2.05;;;18.20;52.10;;;;;;5085878;28;45277;-64
2023/05/01 08:38:08;;;;;;;1.85;1.75;;;18.20;52.70;;;;;;5086060;28;45370;-65
2023/05/01 08:40:37;;;;;;;1.80;1.70;;;18.20;52.10;;;;;;5085795;28;45443;-64
2023/05/01 08:43:05;;;;;;;1.90;1.80;;;18.20;52.20;;;;;;5085746;28;46676;-65
2023/05/01 08:45:34;;;;;;;2.00;1.83;;;18.20;52.50;;;;;;5085764;28;45349;-67
2023/05/01 08:48:02;;;;;;;2.22;2.03;;;18.30;52.50;;;;;;5086108;28;45265;-67
2023/05/01 08:50:29;;;;;;;2.75;1.90;;;18.30;52.60;;;;;;5085696;28;45323;-69
2023/05/01 08:52:57;;;;;;;5.65;1.90;;;18.50;52.80;;;;;;5085574;28;45711;-69
2023/05/01 08:55:24;;;;;;;2.90;1.95;;;18.50;52.40;;;;;;5085417;28;45382;-69
2023/05/01 08:57:51;;;;;;;2.15;1.95;;;18.60;53.10;;;;;;5085845;28;45428;-68
2023/05/01 09:00:20;;;;;;;2.33;2.10;;;18.60;53.00;;;;;;5085768;28;45224;-66
2023/05/01 09:02:47;;;;;;;7.20;2.42;;;18.70;52.30;;;;;;5085094;28;45466;-66
2023/05/01 09:05:14;;;;;;;9.45;2.30;;;18.80;52.40;;;;;;5085191;28;45371;-65
2023/05/01 09:07:41;;;;;;;2.33;1.75;;;18.80;52.20;;;;;;5082718;28;45391;-65
2023/05/01 09:10:08;;;;;;;6.30;2.10;;;18.90;51.90;;;;;;5085643;28;45202;-67
2023/05/01 09:12:35;;;;;;;18.40;2.72;;;18.90;52.20;;;;;;5084855;28;46688;-66
2023/05/01 09:15:02;;;;;;;9.00;2.72;;;18.90;53.40;;;;;;5085856;28;45284;-67
2023/05/01 09:17:31;;;;;;;9.13;2.10;;;18.90;53.50;;;;;;5076648;28;45388;-67
2023/05/01 09:19:58;;;;;;;4.43;2.22;;;18.90;53.20;;;;;;5064295;28;45411;-66
2023/05/01 09:22:25;;;;;;;3.72;1.85;;;19.00;52.90;;;;;;5064456;28;45495;-66
2023/05/01 09:24:51;;;;;;;5.30;2.53;;;19.00;52.50;;;;;;5061915;28;45355;-67
2023/05/01 09:27:18;;;;;;;3.10;2.17;;;19.00;52.20;;;;;;5065389;28;45463;-65
2023/05/01 09:29:46;;;;;;;2.53;2.30;;;19.10;52.40;;;;;;5066593;28;45292;-68
2023/05/01 09:32:13;;;;;;;3.03;2.25;;;19.20;52.30;;;;;;5068641;28;45481;-70
2023/05/01 09:34:42;;;;;;;3.30;2.05;;;19.30;53.40;;;;;;5069232;28;45275;-68
2023/05/01 09:37:12;;;;;;;2.85;2.22;;;19.40;53.00;;;;;;5069717;28;45439;-70
2023/05/01 09:39:39;;;;;;;6.28;2.50;;;19.50;52.40;;;;;;5069251;28;45256;-71
2023/05/01 09:42:05;;;;;;;2.42;2.20;;;19.60;52.30;;;;;;5068982;28;45253;-69
2023/05/01 09:44:34;;;;;;;2.30;2.10;;;19.80;52.20;;;;;;5068642;28;45317;-67
2023/05/01 09:47:01;;;;;;;6.93;2.30;;;19.90;51.90;;;;;;5068564;28;45325;-68
2023/05/01 09:49:46;;;;;;;2.30;2.10;;;20.00;51.60;;;;;;5050563;28;45597;-67
2023/05/01 09:52:14;;;;;;;3.05;2.40;;;20.00;51.90;;;;;;5068158;28;45384;-66
2023/05/01 09:54:41;;;;;;;3.88;2.38;;;20.10;51.40;;;;;;5050736;28;45286;-69
2023/05/01 09:57:08;;;;;;;3.53;2.17;;;20.20;51.60;;;;;;5068704;28;45286;-69
2023/05/01 09:59:35;;;;;;;3.55;2.35;;;20.30;51.40;;;;;;5068536;28;45537;-67
2023/05/01 10:02:02;;;;;;;3.58;2.53;;;20.40;51.10;;;;;;5067231;28;46808;-66
2023/05/01 10:04:32;;;;;;;2.60;2.40;;;20.50;50.40;;;;;;5068320;28;45229;-67
2023/05/01 10:07:11;;;;;;;2.50;2.30;;;20.50;51.10;;;;;;5068527;28;45389;-67
2023/05/01 10:09:38;;;;;;;6.18;2.80;;;20.60;50.70;;;;;;5067903;28;45509;-68
2023/05/01 10:12:05;;;;;;;4.25;2.55;;;20.70;50.50;;;;;;5068330;28;45506;-66
2023/05/01 10:14:37;;;;;;;3.45;2.33;;;20.70;50.50;;;;;;5068153;28;45311;-69
2023/05/01 10:17:17;;;;;;;5.80;2.63;;;20.80;50.40;;;;;;5067298;28;45257;-71
2023/05/01 10:19:43;;;;;;;3.83;2.53;;;20.90;50.00;;;;;;5068012;28;45258;-68
2023/05/01 10:22:11;;;;;;;2.55;2.35;;;20.90;50.20;;;;;;5068145;28;46313;-69
2023/05/01 10:24:38;;;;;;;2.47;2.28;;;21.00;50.20;;;;;;5067888;28;45269;-70
2023/05/01 10:27:06;;;;;;;3.25;2.35;;;21.10;50.50;;;;;;5068866;28;45246;-71
2023/05/01 10:29:35;;;;;;;2.97;2.67;;;21.10;50.20;;;;;;5068131;28;45640;-68
2023/05/01 10:32:02;;;;;;;3.38;2.38;;;21.20;50.00;;;;;;5067489;28;45339;-69
2023/05/01 10:34:29;;;;;;;3.70;2.22;;;21.30;49.50;;;;;;5066337;28;45274;-68
2023/05/01 10:36:59;;;;;;;6.50;2.40;;;21.30;48.60;;;;;;5062013;28;45475;-70
2023/05/01 10:39:31;;;;;;;8.98;2.30;;;21.30;48.60;;;;;;5066982;28;45492;-69
2023/05/01 10:42:03;;;;;;;42.70;9.18;;;21.30;48.40;;;;;;5065193;28;45506;-70
2023/05/01 10:44:33;;;;;;;9.05;3.10;;;21.30;48.80;;;;;;5047158;28;45318;-68
2023/05/01 10:47:00;;;;;;;4.10;2.28;;;21.30;48.50;;;;;;5046935;28;45294;-68
2023/05/01 10:49:57;;;;;;;8.18;3.08;;;21.20;48.50;;;;;;5047148;28;45611;-69
2023/05/01 10:52:24;;;;;;;7.38;2.63;;;21.30;49.00;;;;;;5046867;28;46411;-70
2023/05/01 10:54:52;;;;;;;6.20;2.55;;;21.30;48.90;;;;;;5047185;28;45319;-69
2023/05/01 10:57:42;;;;;;;3.35;2.47;;;21.20;48.80;;;;;;5055607;28;45321;-68
2023/05/01 11:00:13;;;;;;;9.13;3.03;;;21.20;48.70;;;;;;5067798;28;45547;-69
2023/05/01 11:02:40;;;;;;;5.25;2.55;;;21.20;48.90;;;;;;5067100;28;45396;-69
2023/05/01 11:05:07;;;;;;;7.97;3.05;;;21.20;48.90;;;;;;5066961;28;45391;-69
2023/05/01 11:07:34;;;;;;;6.65;2.50;;;21.20;48.70;;;;;;5067576;28;45360;-68
2023/05/01 11:10:02;;;;;;;7.85;3.47;;;21.30;49.60;;;;;;5066394;28;45231;-67
2023/05/01 11:12:48;;;;;;;8.45;2.50;;;21.30;49.40;;;;;;5064858;28;46666;-68
2023/05/01 11:15:26;;;;;;;4.57;2.05;;;21.40;49.30;;;;;;5063856;28;45420;-69
2023/05/01 11:17:53;;;;;;;6.00;2.78;;;21.40;48.90;;;;;;5050986;28;45200;-67
2023/05/01 11:21:00;;;;;;;4.70;4.18;;;21.40;49.30;;;;;;5066574;28;45565;-69
2023/05/01 11:23:27;;;;;;;14.75;11.98;;;21.60;49.50;;;;;;5065406;28;48291;-69
2023/05/01 11:26:05;;;;;;;19.80;17.70;;;21.70;49.20;;;;;;5066278;28;45361;-67
2023/05/01 11:28:32;;;;;;;16.60;15.00;;;21.70;49.20;;;;;;5051156;28;45516;-67
2023/05/01 11:31:00;;;;;;;17.20;13.95;;;21.80;49.00;;;;;;5058837;28;45400;-69
2023/05/01 11:33:26;;;;;;;16.90;14.40;;;21.90;49.00;;;;;;5066243;28;45566;-70
2023/05/01 11:36:00;;;;;;;12.00;10.80;;;22.00;48.90;;;;;;5065239;28;45486;-66
2023/05/01 11:38:27;;;;;;;7.78;6.70;;;22.00;48.90;;;;;;5056463;28;45208;-66
2023/05/01 11:40:54;;;;;;;10.10;5.10;;;22.10;48.40;;;;;;5066671;28;45308;-68
2023/05/01 11:43:23;;;;;;;4.70;3.90;;;22.10;48.30;;;;;;5069471;28;45438;-70
2023/05/01 11:45:53;;;;;;;5.38;4.13;;;22.10;47.80;;;;;;5067433;28;45261;-70
2023/05/01 11:48:19;;;;;;;6.65;3.88;;;22.00;47.80;;;;;;5063982;28;45656;-68
2023/05/01 11:50:46;;;;;;;4.05;3.28;;;21.90;48.10;;;;;;5055191;28;45301;-69
2023/05/01 11:53:15;;;;;;;15.93;4.47;;;22.00;48.00;;;;;;5047860;28;45432;-68
2023/05/01 11:55:42;;;;;;;4.55;4.13;;;21.90;47.60;;;;;;5060894;28;45554;-71
2023/05/01 11:58:09;;;;;;;6.65;3.67;;;21.90;46.80;;;;;;5059994;28;45483;-69
2023/05/01 12:00:38;;;;;;;5.93;3.22;;;22.00;46.80;;;;;;5059650;28;45462;-72
2023/05/01 12:03:06;;;;;;;6.20;3.53;;;22.00;46.30;;;;;;5050131;28;47963;-70
2023/05/01 12:05:34;;;;;;;6.60;3.50;;;22.10;47.00;;;;;;5055843;28;45314;-70
2023/05/01 12:08:11;;;;;;;3.33;3.03;;;22.20;47.70;;;;;;5061924;28;45583;-70
2023/05/01 12:10:38;;;;;;;3.30;3.00;;;22.30;46.50;;;;;;5062314;28;45331;-68
2023/05/01 12:13:06;;;;;;;7.40;4.50;;;22.30;46.30;;;;;;5052364;28;45473;-70
2023/05/01 12:15:35;;;;;;;3.47;3.17;;;22.40;47.40;;;;;;5063364;28;46026;-71
2023/05/01 12:18:03;;;;;;;2.95;2.75;;;22.40;46.40;;;;;;5065710;28;45460;-71
2023/05/01 12:20:37;;;;;;;5.97;2.97;;;22.40;45.10;;;;;;5061751;28;45373;-69
2023/05/01 12:23:05;;;;;;;7.50;6.90;;;22.40;44.90;;;;;;5085763;28;46602;-69
2023/05/01 12:25:32;;;;;;;4.97;4.28;;;22.40;45.80;;;;;;5076690;28;45319;-72
2023/05/01 12:28:00;;;;;;;4.18;3.35;;;22.50;45.90;;;;;;5063291;28;46548;-70
2023/05/01 12:30:28;;;;;;;4.43;4.03;;;22.50;45.30;;;;;;5073229;28;45356;-72
2023/05/01 12:32:56;;;;;;;6.15;5.00;;;22.40;46.20;;;;;;5063268;28;46513;-71
2023/05/01 12:35:29;;;;;;;5.00;4.35;;;22.50;46.70;;;;;;5065259;28;45215;-74
2023/05/01 12:37:56;;;;;;;3.97;3.67;;;22.50;46.90;;;;;;5065507;28;45260;-67
2023/05/01 12:40:23;;;;;;;3.17;2.85;;;22.50;45.80;;;;;;5067582;28;45392;-69
2023/05/01 12:42:55;;;;;;;4.20;3.20;;;22.50;45.40;;;;;;5064223;28;45501;-69
2023/05/01 12:45:21;;;;;;;3.60;3.30;;;22.50;44.70;;;;;;5060072;28;45369;-68
2023/05/01 12:47:48;;;;;;;4.10;3.80;;;22.40;45.30;;;;;;5061813;28;45502;-71
2023/05/01 12:50:15;;;;;;;5.25;4.00;;;22.50;46.50;;;;;;5064068;28;45437;-70